Time;durP1;ratioP1;P1;durP2;ratioP2;P2;SDS_P1;SDS_P2;PMS_P1;PMS_P2;Temp;Humidity;BMP_temperature;BMP_pressure;BME280_temperature;BME280_humidity;BME280_pressure;Samples;Min_cycle;Max_cycle;Signal;HPM_P1;HPM_P2
2023/06/04 00:01:26;;;;;;;7.70;6.45;;;;;;;;;;5076290;28;20216;-69
2023/06/04 00:03:53;;;;;;;9.07;6.57;;;;;;;;;;5076334;28;20212;-69
2023/06/04 00:06:19;;;;;;;7.57;6.22;;;;;;;;;;5076051;28;20208;-69
2023/06/04 00:08:47;;;;;;;7.13;5.50;;;;;;;;;;5076498;28;20220;-69
2023/06/04 00:11:13;;;;;;;7.03;6.30;;;;;;;;;;5076532;28;20208;-69
2023/06/04 00:13:39;;;;;;;7.63;6.20;;;;;;;;;;5076793;28;20289;-69
2023/06/04 00:16:06;;;;;;;6.10;5.60;;;;;;;;;;5076368;28;20290;-69
2023/06/04 00:18:32;;;;;;;6.68;6.05;;;;;;;;;;5076268;28;20534;-69
2023/06/04 00:20:58;;;;;;;7.72;6.68;;;;;;;;;;5076459;28;20254;-69
2023/06/04 00:23:24;;;;;;;6.68;5.85;;;;;;;;;;5076187;28;20215;-69
2023/06/04 00:25:52;;;;;;;6.28;5.68;;;;;;;;;;5067883;28;20246;-69
2023/06/04 00:28:18;;;;;;;6.68;6.07;;;;;;;;;;5076027;28;20232;-69
2023/06/04 00:30:44;;;;;;;6.43;5.82;;;;;;;;;;5076216;28;20216;-69
2023/06/04 00:33:11;;;;;;;6.50;5.78;;;;;;;;;;5076045;28;20250;-69
2023/06/04 00:35:37;;;;;;;6.88;6.25;;;;;;;;;;5076192;28;20213;-69
2023/06/04 00:38:03;;;;;;;7.72;5.93;;;;;;;;;;5076461;28;20568;-69
2023/06/04 00:40:29;;;;;;;7.75;6.28;;;;;;;;;;5075999;28;20211;-69
2023/06/04 00:42:57;;;;;;;6.45;5.65;;;;;;;;;;5076147;28;20204;-69
2023/06/04 00:45:25;;;;;;;6.85;5.28;;;;;;;;;;5077669;28;20532;-69
2023/06/04 00:47:52;;;;;;;9.02;5.40;;;;;;;;;;5079666;28;20216;-69
2023/06/04 00:50:20;;;;;;;7.18;5.43;;;;;;;;;;5079814;28;20574;-69
2023/06/04 00:52:47;;;;;;;7.57;5.45;;;;;;;;;;5079807;28;20216;-69
2023/06/04 00:55:13;;;;;;;7.93;5.35;;;;;;;;;;5079679;28;20208;-69
2023/06/04 00:57:39;;;;;;;5.85;5.22;;;;;;;;;;5079688;28;20259;-69
2023/06/04 01:00:08;;;;;;;6.90;5.20;;;;;;;;;;5079682;28;20208;-69
2023/06/04 01:02:35;;;;;;;6.03;5.38;;;;;;;;;;5079793;28;20216;-69
2023/06/04 01:05:04;;;;;;;5.85;5.00;;;;;;;;;;5079843;28;20220;-69
2023/06/04 01:07:30;;;;;;;5.75;4.80;;;;;;;;;;5079908;28;20269;-69
2023/06/04 01:09:57;;;;;;;4.90;4.50;;;;;;;;;;5079821;28;20258;-69
2023/06/04 01:12:24;;;;;;;5.55;5.07;;;;;;;;;;5079533;28;20212;-69
2023/06/04 01:14:50;;;;;;;5.07;4.60;;;;;;;;;;5079285;28;20303;-69
2023/06/04 01:17:20;;;;;;;4.57;4.28;;;;;;;;;;5079548;28;20258;-69
2023/06/04 01:20:02;;;;;;;5.75;4.47;;;;;;;;;;5071585;28;20212;-69
2023/06/04 01:22:32;;;;;;;7.70;5.18;;;;;;;;;;5077986;28;20246;-69
2023/06/04 01:25:03;;;;;;;4.70;4.30;;;;;;;;;;5079009;28;20281;-69
2023/06/04 01:27:30;;;;;;;5.43;4.93;;;;;;;;;;5072549;28;20260;-69
2023/06/04 01:29:56;;;;;;;7.38;4.70;;;;;;;;;;5079127;28;20228;-69
2023/06/04 01:32:24;;;;;;;6.82;4.80;;;;;;;;;;5079309;28;20219;-69
2023/06/04 01:34:51;;;;;;;4.78;4.38;;;;;;;;;;5079151;28;20543;-69
2023/06/04 01:37:18;;;;;;;6.40;4.40;;;;;;;;;;5079090;28;20208;-69
2023/06/04 01:39:44;;;;;;;5.25;4.25;;;;;;;;;;5078959;28;20254;-69
2023/06/04 01:42:10;;;;;;;5.22;4.13;;;;;;;;;;5079084;28;20216;-69
2023/06/04 01:44:37;;;;;;;7.70;4.47;;;;;;;;;;5078655;28;20223;-69
2023/06/04 01:47:03;;;;;;;4.40;4.00;;;;;;;;;;5078652;28;20266;-69
2023/06/04 01:49:31;;;;;;;5.95;3.90;;;;;;;;;;5078543;28;20262;-69
2023/06/04 01:51:57;;;;;;;4.70;4.30;;;;;;;;;;5078748;28;20216;-69
2023/06/04 01:54:23;;;;;;;4.22;3.97;;;;;;;;;;5078338;28;20220;-69
2023/06/04 01:56:50;;;;;;;4.43;4.03;;;;;;;;;;5078826;28;20216;-69
2023/06/04 01:59:17;;;;;;;4.85;4.10;;;;;;;;;;5078749;28;20516;-69
2023/06/04 02:01:43;;;;;;;4.65;4.00;;;;;;;;;;5078461;28;20220;-69
2023/06/04 02:04:09;;;;;;;5.20;3.97;;;;;;;;;;5078193;28;20464;-69
2023/06/04 02:06:37;;;;;;;8.93;3.88;;;;;;;;;;5077828;28;20221;-69
2023/06/04 02:09:03;;;;;;;4.35;3.95;;;;;;;;;;5078171;28;20342;-69
2023/06/04 02:11:29;;;;;;;4.78;4.28;;;;;;;;;;5078112;28;20218;-69
2023/06/04 02:13:56;;;;;;;4.30;4.00;;;;;;;;;;5078094;28;20212;-69
2023/06/04 02:16:22;;;;;;;4.22;3.92;;;;;;;;;;5077718;28;20216;-69
2023/06/04 02:18:48;;;;;;;4.65;4.20;;;;;;;;;;5078229;28;20212;-69
2023/06/04 02:21:14;;;;;;;4.45;4.05;;;;;;;;;;5078467;28;20491;-69
2023/06/04 02:23:42;;;;;;;5.70;3.95;;;;;;;;;;5078021;28;20216;-69
2023/06/04 02:26:08;;;;;;;4.45;4.03;;;;;;;;;;5077814;28;20251;-69
2023/06/04 02:28:34;;;;;;;4.80;4.43;;;;;;;;;;5077652;28;20232;-69
2023/06/04 02:31:01;;;;;;;4.50;3.60;;;;;;;;;;5077990;28;20255;-69
2023/06/04 02:33:27;;;;;;;4.65;4.30;;;;;;;;;;5077797;28;20438;-69
2023/06/04 02:35:53;;;;;;;5.22;4.45;;;;;;;;;;5077784;28;20250;-69
2023/06/04 02:38:19;;;;;;;4.68;4.20;;;;;;;;;;5077875;28;20216;-69
2023/06/04 02:40:47;;;;;;;5.40;4.07;;;;;;;;;;5077771;28;20212;-69
2023/06/04 02:43:13;;;;;;;4.13;3.72;;;;;;;;;;5077844;28;20407;-69
2023/06/04 02:45:39;;;;;;;4.55;4.13;;;;;;;;;;5077682;28;20605;-69
2023/06/04 02:48:06;;;;;;;4.13;3.83;;;;;;;;;;5077777;28;20212;-69
2023/06/04 02:50:32;;;;;;;4.60;3.83;;;;;;;;;;5077354;28;20536;-69
2023/06/04 02:52:58;;;;;;;3.55;3.35;;;;;;;;;;5077669;28;20450;-69
2023/06/04 02:55:24;;;;;;;3.70;3.50;;;;;;;;;;5077041;28;20216;-69
2023/06/04 02:57:52;;;;;;;4.22;3.22;;;;;;;;;;5077334;28;20216;-69
2023/06/04 03:00:19;;;;;;;3.20;2.90;;;;;;;;;;5077250;28;20205;-69
2023/06/04 03:02:45;;;;;;;5.00;3.50;;;;;;;;;;5077223;28;20246;-69
2023/06/04 03:05:12;;;;;;;4.47;3.25;;;;;;;;;;5077157;28;20215;-69
2023/06/04 03:07:39;;;;;;;3.25;2.97;;;;;;;;;;5076720;28;20543;-69
2023/06/04 03:10:06;;;;;;;2.97;2.78;;;;;;;;;;5077433;28;20419;-69
2023/06/04 03:12:32;;;;;;;4.32;2.78;;;;;;;;;;5077344;28;20212;-69
2023/06/04 03:15:00;;;;;;;9.30;3.20;;;;;;;;;;5076938;28;20208;-69
2023/06/04 03:17:26;;;;;;;3.13;2.92;;;;;;;;;;5076863;28;20212;-69
2023/06/04 03:19:52;;;;;;;3.58;3.28;;;;;;;;;;5076782;28;20205;-69
2023/06/04 03:22:19;;;;;;;3.35;2.90;;;;;;;;;;5076902;28;20215;-69
2023/06/04 03:24:45;;;;;;;3.88;3.05;;;;;;;;;;5075260;28;20266;-69
2023/06/04 03:27:11;;;;;;;8.00;3.03;;;;;;;;;;5076592;28;20224;-69
2023/06/04 03:29:38;;;;;;;3.10;2.90;;;;;;;;;;5076704;28;20440;-69
2023/06/04 03:32:06;;;;;;;2.88;2.67;;;;;;;;;;5076875;28;20406;-69
2023/06/04 03:34:33;;;;;;;4.85;2.60;;;;;;;;;;5076542;28;20221;-69
2023/06/04 03:36:59;;;;;;;2.38;2.28;;;;;;;;;;5077333;28;20215;-69
2023/06/04 03:39:26;;;;;;;2.70;2.60;;;;;;;;;;5076746;28;20204;-69
2023/06/04 03:41:52;;;;;;;4.18;2.80;;;;;;;;;;5068356;28;20545;-69
2023/06/04 03:44:20;;;;;;;2.88;2.50;;;;;;;;;;5076560;28;20208;-69
2023/06/04 03:46:46;;;;;;;2.78;2.63;;;;;;;;;;5076733;28;20212;-69
2023/06/04 03:49:17;;;;;;;3.47;2.55;;;;;;;;;;5076660;28;20232;-69
2023/06/04 03:51:43;;;;;;;3.65;2.53;;;;;;;;;;5076662;28;20275;-69
2023/06/04 03:54:09;;;;;;;3.00;2.40;;;;;;;;;;5076667;28;20208;-69
2023/06/04 03:56:36;;;;;;;2.60;2.50;;;;;;;;;;5076279;28;20212;-69
2023/06/04 03:59:02;;;;;;;2.17;2.13;;;;;;;;;;5076453;28;20268;-69
2023/06/04 04:01:29;;;;;;;2.60;2.50;;;;;;;;;;5076518;28;20697;-69
2023/06/04 04:03:55;;;;;;;4.80;2.60;;;;;;;;;;5076661;28;20208;-69
2023/06/04 04:06:23;;;;;;;5.97;2.53;;;;;;;;;;5076506;28;20200;-69
2023/06/04 04:08:49;;;;;;;3.30;3.00;;;;;;;;;;5076315;28;20528;-69
2023/06/04 04:11:16;;;;;;;2.88;2.65;;;;;;;;;;5076413;28;20546;-69
2023/06/04 04:13:42;;;;;;;2.53;2.33;;;;;;;;;;5076566;28;20269;-69
2023/06/04 04:16:10;;;;;;;3.92;3.60;;;;;;;;;;5076114;28;20544;-68
2023/06/04 04:18:36;;;;;;;3.17;2.90;;;;;;;;;;5076240;28;20284;-67
2023/06/04 04:21:03;;;;;;;4.18;2.78;;;;;;;;;;5079422;28;20250;-67
2023/06/04 04:23:31;;;;;;;4.68;3.30;;;;;;;;;;5080148;28;20231;-67
2023/06/04 04:25:58;;;;;;;2.88;2.72;;;;;;;;;;5078474;28;20516;-67
2023/06/04 04:28:28;;;;;;;3.30;3.10;;;;;;;;;;5080349;28;20231;-67
2023/06/04 04:30:56;;;;;;;3.30;3.00;;;;;;;;;;5080411;28;20297;-67
2023/06/04 04:33:24;;;;;;;3.80;3.50;;;;;;;;;;5080360;28;20246;-67
2023/06/04 04:35:50;;;;;;;4.20;3.50;;;;;;;;;;5080049;28;20275;-67
2023/06/04 04:38:17;;;;;;;5.65;3.70;;;;;;;;;;5080709;28;20212;-67
2023/06/04 04:40:47;;;;;;;6.18;3.00;;;;;;;;;;5080209;28;20204;-67
2023/06/04 04:43:13;;;;;;;3.95;3.08;;;;;;;;;;5080349;28;20280;-67
2023/06/04 04:45:39;;;;;;;3.70;3.15;;;;;;;;;;5079790;28;20555;-67
2023/06/04 04:48:06;;;;;;;2.88;2.60;;;;;;;;;;5079640;28;20466;-67
2023/06/04 04:50:32;;;;;;;4.00;2.85;;;;;;;;;;5079219;28;20236;-67
2023/06/04 04:52:58;;;;;;;3.08;2.88;;;;;;;;;;5079760;28;20400;-67
2023/06/04 04:55:24;;;;;;;3.58;3.10;;;;;;;;;;5079579;28;20474;-67
2023/06/04 04:57:52;;;;;;;3.72;3.42;;;;;;;;;;5079556;28;20216;-67
2023/06/04 05:00:19;;;;;;;3.53;3.28;;;;;;;;;;5079683;28;20208;-67
2023/06/04 05:02:45;;;;;;;5.72;3.85;;;;;;;;;;5079347;28;20279;-67
2023/06/04 05:05:12;;;;;;;5.10;4.25;;;;;;;;;;5079589;28;20395;-67
2023/06/04 05:07:38;;;;;;;4.50;4.10;;;;;;;;;;5079633;28;20215;-67
2023/06/04 05:10:05;;;;;;;4.60;3.80;;;;;;;;;;5079432;28;20673;-67
2023/06/04 05:12:31;;;;;;;4.97;3.95;;;;;;;;;;5079348;28;20212;-67
2023/06/04 05:14:59;;;;;;;4.68;4.25;;;;;;;;;;5071091;28;20538;-67
2023/06/04 05:17:30;;;;;;;4.88;4.38;;;;;;;;;;5079337;28;20274;-67
2023/06/04 05:20:01;;;;;;;5.90;4.60;;;;;;;;;;5079372;28;20208;-67
2023/06/04 05:22:28;;;;;;;6.93;5.25;;;;;;;;;;5079386;28;20464;-67
2023/06/04 05:24:55;;;;;;;6.53;5.20;;;;;;;;;;5075877;28;20244;-67
2023/06/04 05:27:22;;;;;;;5.68;5.10;;;;;;;;;;5074135;28;20235;-67
2023/06/04 05:29:48;;;;;;;5.82;5.28;;;;;;;;;;5078818;28;20227;-67
2023/06/04 05:32:16;;;;;;;6.60;5.28;;;;;;;;;;5078202;28;20294;-67
2023/06/04 05:34:43;;;;;;;6.22;5.43;;;;;;;;;;5078773;28;20279;-67
2023/06/04 05:37:09;;;;;;;5.63;5.07;;;;;;;;;;5079114;28;20414;-67
2023/06/04 05:39:36;;;;;;;5.93;5.32;;;;;;;;;;5079077;28;20265;-67
2023/06/04 05:42:02;;;;;;;4.35;4.00;;;;;;;;;;5079253;28;20209;-67
2023/06/04 05:44:29;;;;;;;5.18;4.65;;;;;;;;;;5078785;28;20543;-67
2023/06/04 05:46:55;;;;;;;4.85;4.35;;;;;;;;;;5078792;28;20231;-67
2023/06/04 05:49:25;;;;;;;5.55;4.15;;;;;;;;;;5078618;28;20461;-67
2023/06/04 05:51:51;;;;;;;4.28;3.88;;;;;;;;;;5078609;28;20226;-67
2023/06/04 05:54:17;;;;;;;4.93;3.75;;;;;;;;;;5078562;28;20527;-67
2023/06/04 05:56:43;;;;;;;3.97;3.17;;;;;;;;;;5078642;28;20216;-67
2023/06/04 05:59:10;;;;;;;3.35;3.15;;;;;;;;;;5078569;28;20404;-67
2023/06/04 06:01:36;;;;;;;6.80;3.40;;;;;;;;;;5078437;28;20213;-67
2023/06/04 06:04:03;;;;;;;4.70;3.33;;;;;;;;;;5078915;28;20215;-67
2023/06/04 06:06:31;;;;;;;3.30;2.75;;;;;;;;;;5079009;28;20521;-67
2023/06/04 06:08:57;;;;;;;4.07;2.95;;;;;;;;;;5078750;28;20543;-67
2023/06/04 06:11:26;;;;;;;2.83;2.58;;;;;;;;;;5078452;28;20221;-67
2023/06/04 06:13:53;;;;;;;5.13;3.28;;;;;;;;;;5072578;28;20208;-67
2023/06/04 06:16:19;;;;;;;5.13;3.13;;;;;;;;;;5078295;28;20544;-67
2023/06/04 06:18:45;;;;;;;2.67;2.53;;;;;;;;;;5078107;28;20520;-67
2023/06/04 06:21:11;;;;;;;4.00;2.85;;;;;;;;;;5078365;28;20581;-67
2023/06/04 06:23:39;;;;;;;5.10;2.53;;;;;;;;;;5078355;28;20212;-67
2023/06/04 06:26:08;;;;;;;6.47;2.53;;;;;;;;;;5075405;28;20212;-67
2023/06/04 06:28:35;;;;;;;2.58;2.38;;;;;;;;;;5078188;28;20274;-67
2023/06/04 06:31:02;;;;;;;2.67;2.50;;;;;;;;;;5077985;28;20483;-67
2023/06/04 06:33:28;;;;;;;3.50;2.90;;;;;;;;;;5078238;28;20230;-67
2023/06/04 06:35:54;;;;;;;2.33;2.20;;;;;;;;;;5078412;28;20212;-67
2023/06/04 06:38:20;;;;;;;3.45;2.42;;;;;;;;;;5078844;28;20293;-59
2023/06/04 06:40:48;;;;;;;4.15;2.25;;;;;;;;;;5079080;28;20212;-60
2023/06/04 06:43:15;;;;;;;4.85;2.35;;;;;;;;;;5078469;28;20209;-60
2023/06/04 06:45:41;;;;;;;5.10;2.17;;;;;;;;;;5079261;28;20208;-61
2023/06/04 06:48:07;;;;;;;2.90;2.35;;;;;;;;;;5078850;28;20208;-61
2023/06/04 06:50:35;;;;;;;6.43;1.77;;;;;;;;;;5078780;28;20554;-60
2023/06/04 06:53:01;;;;;;;2.42;2.22;;;;;;;;;;5078689;28;20520;-61
2023/06/04 06:55:27;;;;;;;1.92;1.83;;;;;;;;;;5078326;28;20208;-61
2023/06/04 06:57:55;;;;;;;2.50;1.90;;;;;;;;;;5078241;28;20216;-61
2023/06/04 07:00:21;;;;;;;2.85;2.17;;;;;;;;;;5078370;28;20196;-61
2023/06/04 07:02:47;;;;;;;2.47;2.10;;;;;;;;;;5078574;28;20261;-61
2023/06/04 07:05:17;;;;;;;5.43;2.10;;;;;;;;;;5078212;28;20213;-61
2023/06/04 07:07:43;;;;;;;3.05;2.05;;;;;;;;;;5078194;28;20214;-61
2023/06/04 07:10:10;;;;;;;2.65;2.35;;;;;;;;;;5077950;28;20251;-60
2023/06/04 07:12:36;;;;;;;1.90;1.80;;;;;;;;;;5078016;28;20527;-60
2023/06/04 07:15:05;;;;;;;2.60;1.70;;;;;;;;;;5077751;28;20787;-61
2023/06/04 07:17:31;;;;;;;3.28;1.85;;;;;;;;;;5078101;28;20587;-61
2023/06/04 07:19:57;;;;;;;2.65;1.83;;;;;;;;;;5078144;28;20516;-61
2023/06/04 07:22:23;;;;;;;5.97;2.00;;;;;;;;;;5078253;28;20208;-61
2023/06/04 07:24:50;;;;;;;2.83;2.47;;;;;;;;;;5075100;28;20246;-61
2023/06/04 07:27:16;;;;;;;7.28;1.98;;;;;;;;;;5078281;28;20224;-61
2023/06/04 07:29:44;;;;;;;2.15;2.00;;;;;;;;;;5078212;28;20254;-60
2023/06/04 07:32:11;;;;;;;2.75;2.20;;;;;;;;;;5078566;28;20208;-61
2023/06/04 07:34:38;;;;;;;4.13;2.20;;;;;;;;;;5078234;28;20539;-61
2023/06/04 07:37:05;;;;;;;5.35;3.95;;;;;;;;;;5078053;28;20521;-61
2023/06/04 07:39:31;;;;;;;4.22;2.60;;;;;;;;;;5077199;28;20773;-68
2023/06/04 07:41:57;;;;;;;3.20;2.03;;;;;;;;;;5075903;28;20208;-68
2023/06/04 07:44:23;;;;;;;2.80;2.22;;;;;;;;;;5076631;28;20208;-68
2023/06/04 07:46:50;;;;;;;2.67;2.22;;;;;;;;;;5075966;28;20212;-68
2023/06/04 07:49:17;;;;;;;4.60;2.28;;;;;;;;;;5076035;28;20297;-68
2023/06/04 07:51:44;;;;;;;2.30;2.10;;;;;;;;;;5075786;28;20238;-68
2023/06/04 07:54:10;;;;;;;2.85;2.60;;;;;;;;;;5075886;28;20201;-68
2023/06/04 07:56:38;;;;;;;2.17;1.98;;;;;;;;;;5076220;28;20219;-68
2023/06/04 07:59:04;;;;;;;2.38;2.25;;;;;;;;;;5076309;28;20205;-68
2023/06/04 08:01:30;;;;;;;4.18;2.15;;;;;;;;;;5076696;28;20436;-68
2023/06/04 08:03:58;;;;;;;4.35;2.17;;;;;;;;;;5076575;28;20212;-68
2023/06/04 08:06:26;;;;;;;4.18;2.25;;;;;;;;;;5076161;28;20551;-68
2023/06/04 08:08:53;;;;;;;3.42;2.30;;;;;;;;;;5076531;28;20543;-68
2023/06/04 08:11:19;;;;;;;4.85;2.20;;;;;;;;;;5076432;28;20277;-67
2023/06/04 08:13:45;;;;;;;4.00;2.35;;;;;;;;;;5076833;28;20211;-67
2023/06/04 08:16:11;;;;;;;3.95;2.13;;;;;;;;;;5076529;28;20208;-67
2023/06/04 08:18:38;;;;;;;2.30;2.10;;;;;;;;;;5076821;28;20258;-67
2023/06/04 08:21:05;;;;;;;5.10;2.20;;;;;;;;;;5076481;28;20209;-67
2023/06/04 08:23:33;;;;;;;2.42;2.30;;;;;;;;;;5077039;28;20223;-67
2023/06/04 08:25:59;;;;;;;3.13;2.20;;;;;;;;;;5068840;28;20213;-68
2023/06/04 08:28:25;;;;;;;3.42;2.45;;;;;;;;;;5076526;28;20458;-68
2023/06/04 08:30:52;;;;;;;3.53;2.40;;;;;;;;;;5076153;28;20251;-68
2023/06/04 08:33:18;;;;;;;3.28;2.70;;;;;;;;;;5076229;28;20454;-68
2023/06/04 08:35:44;;;;;;;6.65;2.33;;;;;;;;;;5075917;28;20216;-68
2023/06/04 08:38:11;;;;;;;4.35;2.92;;;;;;;;;;5076184;28;20543;-68
2023/06/04 08:40:38;;;;;;;3.92;2.13;;;;;;;;;;5076327;28;20246;-68
2023/06/04 08:43:05;;;;;;;6.18;2.50;;;;;;;;;;5076011;28;20208;-68
2023/06/04 08:45:33;;;;;;;1.85;1.75;;;;;;;;;;5076047;28;20454;-68
2023/06/04 08:48:00;;;;;;;4.13;2.35;;;;;;;;;;5076108;28;20216;-68
2023/06/04 08:50:27;;;;;;;4.38;1.95;;;;;;;;;;5076427;28;20235;-68
2023/06/04 08:52:54;;;;;;;3.28;1.92;;;;;;;;;;5076477;28;20269;-68
2023/06/04 08:55:21;;;;;;;2.40;1.83;;;;;;;;;;5076031;28;20208;-68
2023/06/04 08:57:50;;;;;;;2.60;2.30;;;;;;;;;;5075878;28;20254;-68
2023/06/04 09:00:16;;;;;;;1.98;1.88;;;;;;;;;;5075999;28;20215;-68
2023/06/04 09:02:43;;;;;;;7.15;2.17;;;;;;;;;;5075869;28;20432;-68
2023/06/04 09:05:10;;;;;;;4.80;2.30;;;;;;;;;;5075863;28;20209;-68
2023/06/04 09:07:37;;;;;;;2.72;1.90;;;;;;;;;;5079727;28;20244;-68
2023/06/04 09:10:05;;;;;;;2.90;2.10;;;;;;;;;;5079600;28;20219;-68
2023/06/04 09:12:31;;;;;;;3.58;2.47;;;;;;;;;;5079443;28;20583;-68
2023/06/04 09:14:59;;;;;;;4.05;2.05;;;;;;;;;;5079303;28;20227;-68
2023/06/04 09:17:25;;;;;;;3.97;2.13;;;;;;;;;;5079613;28;20381;-68
2023/06/04 09:19:51;;;;;;;3.60;2.13;;;;;;;;;;5079728;28;20216;-68
2023/06/04 09:22:18;;;;;;;3.67;2.13;;;;;;;;;;5079777;28;20286;-68
2023/06/04 09:24:46;;;;;;;3.90;2.70;;;;;;;;;;5079348;28;20204;-68
2023/06/04 09:27:13;;;;;;;4.43;2.20;;;;;;;;;;5079307;28;20479;-68
2023/06/04 09:29:40;;;;;;;2.38;2.15;;;;;;;;;;5079087;28;20416;-67
2023/06/04 09:32:07;;;;;;;5.07;2.50;;;;;;;;;;5078944;28;20299;-67
2023/06/04 09:34:33;;;;;;;4.50;2.17;;;;;;;;;;5078941;28;20243;-67
2023/06/04 09:37:00;;;;;;;3.75;2.50;;;;;;;;;;5079029;28;20226;-67
2023/06/04 09:39:26;;;;;;;3.30;2.70;;;;;;;;;;5079179;28;20527;-67
2023/06/04 09:42:00;;;;;;;2.78;2.60;;;;;;;;;;5078906;28;20218;-68
2023/06/04 09:44:26;;;;;;;3.30;2.08;;;;;;;;;;5078611;28;20223;-68
2023/06/04 09:46:56;;;;;;;3.08;2.30;;;;;;;;;;5078939;28;20273;-68
2023/06/04 09:49:23;;;;;;;2.95;2.40;;;;;;;;;;5078895;28;20208;-67
2023/06/04 09:51:50;;;;;;;3.67;2.42;;;;;;;;;;5078821;28;20254;-67
2023/06/04 09:54:16;;;;;;;2.55;2.17;;;;;;;;;;5078913;28;20215;-67
2023/06/04 09:56:43;;;;;;;3.85;3.42;;;;;;;;;;5078909;28;20212;-67
2023/06/04 09:59:10;;;;;;;7.60;2.72;;;;;;;;;;5078751;28;20204;-67
2023/06/04 10:01:39;;;;;;;5.78;2.97;;;;;;;;;;5078735;28;20200;-67
2023/06/04 10:04:07;;;;;;;3.88;2.95;;;;;;;;;;5078546;28;20524;-67
2023/06/04 10:06:35;;;;;;;2.72;2.60;;;;;;;;;;5078112;28;20203;-67
2023/06/04 10:09:05;;;;;;;3.60;3.38;;;;;;;;;;5078280;28;20212;-67
2023/06/04 10:11:32;;;;;;;3.05;2.85;;;;;;;;;;5078084;28;20293;-67
2023/06/04 10:14:03;;;;;;;2.78;2.58;;;;;;;;;;5078222;28;20215;-67
2023/06/04 10:16:30;;;;;;;4.45;2.70;;;;;;;;;;5078036;28;20270;-67
2023/06/04 10:18:57;;;;;;;4.25;2.80;;;;;;;;;;5078243;28;20553;-67
2023/06/04 10:21:24;;;;;;;3.42;3.10;;;;;;;;;;5078029;28;20249;-67
2023/06/04 10:23:51;;;;;;;3.85;3.20;;;;;;;;;;5078284;28;20370;-68
2023/06/04 10:26:18;;;;;;;3.33;2.78;;;;;;;;;;5069945;28;20315;-68
2023/06/04 10:28:44;;;;;;;4.13;3.00;;;;;;;;;;5078603;28;20231;-67
2023/06/04 10:31:11;;;;;;;4.18;2.97;;;;;;;;;;5078318;28;20318;-68
2023/06/04 10:33:37;;;;;;;5.82;3.08;;;;;;;;;;5078838;28;20297;-68
2023/06/04 10:36:16;;;;;;;6.97;3.17;;;;;;;;;;5078235;28;20211;-68
2023/06/04 10:38:45;;;;;;;6.38;3.25;;;;;;;;;;5078469;28;20547;-68
2023/06/04 10:41:16;;;;;;;3.38;3.08;;;;;;;;;;5078395;28;20663;-68
2023/06/04 10:43:42;;;;;;;4.65;3.05;;;;;;;;;;5078421;28;20263;-68
2023/06/04 10:46:12;;;;;;;3.58;2.88;;;;;;;;;;5078487;28;20216;-68
2023/06/04 10:48:45;;;;;;;4.38;3.35;;;;;;;;;;5078678;28;20196;-68
2023/06/04 10:51:12;;;;;;;3.45;3.10;;;;;;;;;;5078680;28;20283;-68
2023/06/04 10:53:38;;;;;;;3.53;3.33;;;;;;;;;;5078453;28;20233;-68
2023/06/04 10:56:04;;;;;;;3.60;3.13;;;;;;;;;;5078030;28;20212;-68
2023/06/04 10:58:34;;;;;;;4.47;3.47;;;;;;;;;;5078396;28;20215;-68
2023/06/04 11:01:00;;;;;;;5.03;3.03;;;;;;;;;;5077906;28;20219;-68
2023/06/04 11:03:35;;;;;;;3.75;3.45;;;;;;;;;;5077360;28;20212;-68
2023/06/04 11:06:02;;;;;;;4.53;3.63;;;;;;;;;;5069601;28;20430;-68
2023/06/04 11:08:29;;;;;;;3.85;3.13;;;;;;;;;;5077225;28;20227;-68
2023/06/04 11:10:55;;;;;;;4.30;3.58;;;;;;;;;;5077042;28;20219;-68
2023/06/04 11:13:23;;;;;;;6.78;3.65;;;;;;;;;;5077406;28;20212;-68
2023/06/04 11:15:52;;;;;;;4.40;3.25;;;;;;;;;;5077060;28;20530;-68
2023/06/04 11:18:20;;;;;;;3.97;3.15;;;;;;;;;;5069203;28;20253;-68
2023/06/04 11:20:47;;;;;;;4.40;3.10;;;;;;;;;;5076698;28;20275;-69
2023/06/04 11:23:14;;;;;;;4.57;2.92;;;;;;;;;;5077359;28;20207;-68
2023/06/04 11:25:42;;;;;;;3.50;3.30;;;;;;;;;;5071246;28;20269;-69
2023/06/04 11:28:08;;;;;;;2.92;2.78;;;;;;;;;;5075626;28;20232;-68
2023/06/04 11:30:34;;;;;;;3.00;2.80;;;;;;;;;;5076109;28;20216;-68
2023/06/04 11:33:02;;;;;;;3.08;2.92;;;;;;;;;;5076669;28;20224;-68
2023/06/04 11:35:29;;;;;;;3.58;3.25;;;;;;;;;;5076679;28;20207;-68
2023/06/04 11:37:55;;;;;;;4.28;3.33;;;;;;;;;;5076551;28;20289;-68
2023/06/04 11:40:21;;;;;;;4.10;3.33;;;;;;;;;;5077521;28;20207;-68
2023/06/04 11:42:48;;;;;;;3.70;3.40;;;;;;;;;;5077452;28;20208;-69
2023/06/04 11:45:15;;;;;;;6.07;3.10;;;;;;;;;;5077128;28;20242;-69
2023/06/04 11:47:42;;;;;;;3.75;2.70;;;;;;;;;;5077694;28;20370;-68
2023/06/04 11:50:10;;;;;;;3.08;2.88;;;;;;;;;;5077502;28;20385;-68
2023/06/04 11:52:37;;;;;;;3.20;2.90;;;;;;;;;;5077768;28;20269;-68
2023/06/04 11:55:03;;;;;;;4.32;3.30;;;;;;;;;;5078201;28;20212;-68
2023/06/04 11:57:30;;;;;;;3.95;3.55;;;;;;;;;;5077616;28;20208;-69
2023/06/04 11:59:56;;;;;;;3.63;3.33;;;;;;;;;;5077761;28;20204;-69
2023/06/04 12:02:23;;;;;;;3.40;3.10;;;;;;;;;;5077762;28;20196;-67
2023/06/04 12:04:50;;;;;;;3.45;3.25;;;;;;;;;;5076950;28;20285;-69
2023/06/04 12:07:23;;;;;;;4.93;3.25;;;;;;;;;;5076645;28;20216;-68
2023/06/04 12:09:50;;;;;;;4.85;3.25;;;;;;;;;;5076749;28;20382;-68
2023/06/04 12:12:22;;;;;;;3.30;3.10;;;;;;;;;;5076332;28;20227;-68
2023/06/04 12:14:48;;;;;;;3.83;3.53;;;;;;;;;;5076609;28;20213;-68
2023/06/04 12:17:14;;;;;;;3.50;3.30;;;;;;;;;;5076557;28;20258;-68
2023/06/04 12:19:47;;;;;;;3.88;3.28;;;;;;;;;;5076451;28;20212;-68
2023/06/04 12:22:13;;;;;;;4.38;3.00;;;;;;;;;;5076334;28;20204;-68
2023/06/04 12:24:48;;;;;;;2.88;2.67;;;;;;;;;;5076429;28;20246;-68
2023/06/04 12:27:15;;;;;;;5.38;3.20;;;;;;;;;;5076998;28;20231;-68
2023/06/04 12:29:41;;;;;;;3.90;3.22;;;;;;;;;;5076943;28;20212;-69
2023/06/04 12:32:09;;;;;;;3.42;3.20;;;;;;;;;;5076648;28;20231;-68
2023/06/04 12:34:35;;;;;;;6.22;3.40;;;;;;;;;;5076576;28;20235;-68
2023/06/04 12:37:02;;;;;;;4.80;3.45;;;;;;;;;;5076680;28;20212;-68
2023/06/04 12:39:29;;;;;;;5.95;3.20;;;;;;;;;;5076646;28;20396;-68
2023/06/04 12:41:57;;;;;;;6.43;3.25;;;;;;;;;;5079416;28;20262;-68
2023/06/04 12:44:23;;;;;;;3.17;3.05;;;;;;;;;;5072147;28;20611;-68
2023/06/04 12:46:49;;;;;;;4.22;3.30;;;;;;;;;;5080456;28;20212;-68
2023/06/04 12:49:15;;;;;;;3.35;3.13;;;;;;;;;;5080526;28;20215;-68
2023/06/04 12:51:42;;;;;;;3.67;3.25;;;;;;;;;;5080150;28;20274;-68
2023/06/04 12:54:08;;;;;;;3.60;3.30;;;;;;;;;;5079991;28;20222;-68
2023/06/04 12:56:34;;;;;;;3.10;3.00;;;;;;;;;;5079672;28;20216;-68
2023/06/04 12:59:02;;;;;;;3.22;3.00;;;;;;;;;;5079406;28;20211;-68
2023/06/04 13:01:28;;;;;;;7.88;2.83;;;;;;;;;;5079672;28;20412;-68
2023/06/04 13:03:55;;;;;;;5.47;3.10;;;;;;;;;;5079589;28;20423;-68
2023/06/04 13:06:21;;;;;;;3.22;2.90;;;;;;;;;;5079205;28;20464;-68
2023/06/04 13:08:47;;;;;;;3.30;3.00;;;;;;;;;;5079453;28;20630;-68
2023/06/04 13:11:14;;;;;;;5.90;3.33;;;;;;;;;;5079244;28;20393;-68
2023/06/04 13:13:40;;;;;;;7.28;3.25;;;;;;;;;;5079444;28;20231;-68
2023/06/04 13:16:08;;;;;;;3.40;3.13;;;;;;;;;;5079450;28;20550;-68
2023/06/04 13:18:34;;;;;;;7.10;3.20;;;;;;;;;;5079620;28;20230;-68
2023/06/04 13:21:00;;;;;;;2.80;2.70;;;;;;;;;;5079097;28;20220;-68
2023/06/04 13:23:27;;;;;;;3.75;3.28;;;;;;;;;;5079569;28;20203;-68
2023/06/04 13:25:53;;;;;;;3.53;3.20;;;;;;;;;;5072868;28;20295;-68
2023/06/04 13:28:20;;;;;;;3.85;2.75;;;;;;;;;;5079148;28;20434;-68
2023/06/04 13:30:46;;;;;;;4.82;2.92;;;;;;;;;;5079284;28;20218;-68
2023/06/04 13:33:13;;;;;;;2.95;2.75;;;;;;;;;;5078989;28;20231;-68
2023/06/04 13:35:42;;;;;;;3.97;3.10;;;;;;;;;;5078959;28;20273;-68
2023/06/04 13:38:08;;;;;;;3.13;2.92;;;;;;;;;;5079014;28;20292;-68
2023/06/04 13:40:34;;;;;;;6.20;3.17;;;;;;;;;;5079041;28;20524;-68
2023/06/04 13:43:01;;;;;;;3.35;3.05;;;;;;;;;;5079049;28;20207;-69
2023/06/04 13:45:27;;;;;;;3.53;3.22;;;;;;;;;;5071190;28;20237;-68
2023/06/04 13:47:53;;;;;;;3.50;3.20;;;;;;;;;;5079008;28;20446;-68
2023/06/04 13:50:21;;;;;;;5.88;3.10;;;;;;;;;;5078807;28;20427;-68
2023/06/04 13:52:47;;;;;;;4.38;3.03;;;;;;;;;;5078412;28;20590;-68
2023/06/04 13:55:13;;;;;;;4.53;2.92;;;;;;;;;;5078736;28;20547;-68
2023/06/04 13:57:40;;;;;;;3.75;3.28;;;;;;;;;;5078818;28;20219;-68
2023/06/04 14:00:07;;;;;;;4.43;3.05;;;;;;;;;;5078806;28;20212;-68
2023/06/04 14:02:33;;;;;;;3.83;3.10;;;;;;;;;;5078393;28;20230;-68
2023/06/04 14:05:00;;;;;;;3.10;2.90;;;;;;;;;;5078303;28;20284;-68
2023/06/04 14:07:27;;;;;;;2.70;2.50;;;;;;;;;;5078270;28;20254;-68
2023/06/04 14:09:54;;;;;;;2.83;2.58;;;;;;;;;;5078428;28;20219;-68
2023/06/04 14:12:21;;;;;;;3.00;2.83;;;;;;;;;;5078684;28;20546;-68
2023/06/04 14:14:47;;;;;;;3.20;2.92;;;;;;;;;;5078841;28;20216;-68
2023/06/04 14:17:13;;;;;;;3.53;2.67;;;;;;;;;;5078373;28;20222;-68
2023/06/04 14:19:39;;;;;;;3.58;3.20;;;;;;;;;;5078260;28;20218;-68
2023/06/04 14:22:06;;;;;;;4.95;2.85;;;;;;;;;;5078154;28;20439;-68
2023/06/04 14:24:33;;;;;;;2.92;2.70;;;;;;;;;;5078059;28;20381;-68
2023/06/04 14:26:59;;;;;;;2.92;2.72;;;;;;;;;;5078323;28;20460;-68
2023/06/04 14:29:26;;;;;;;2.97;2.83;;;;;;;;;;5078092;28;20232;-68
2023/06/04 14:31:52;;;;;;;3.13;3.03;;;;;;;;;;5077897;28;20410;-68
2023/06/04 14:34:18;;;;;;;4.40;3.22;;;;;;;;;;5078046;28;20381;-67
2023/06/04 14:36:44;;;;;;;4.88;2.95;;;;;;;;;;5078168;28;20218;-68
2023/06/04 14:39:11;;;;;;;4.80;3.03;;;;;;;;;;5078479;28;20208;-68
2023/06/04 14:41:39;;;;;;;3.28;2.78;;;;;;;;;;5077919;28;20207;-68